TimeEET,TemperatureF,Dew PointF,Humidity,Sea Level PressureIn,VisibilityMPH,Wind Direction,Wind SpeedMPH,Gust SpeedMPH,PrecipitationIn,Events,Conditions,WindDirDegrees,DateUTC
12:20 AM,10.4,8.6,92,30.12,6.2,ESE,5.8,-,N/A,,Scattered Clouds,120,2013-02-14 22:20:00
12:50 AM,17.6,15.8,93,30.09,6.2,East,15.0,-,N/A,,Scattered Clouds,90,2013-02-14 22:50:00
1:20 AM,19.4,15.8,86,30.09,6.2,ENE,9.2,-,N/A,,Scattered Clouds,70,2013-02-14 23:20:00
1:50 AM,10.4,6.8,85,30.09,6.2,SE,5.8,-,N/A,,Scattered Clouds,140,2013-02-14 23:50:00
2:00 AM,10,10,100,,12,SE,5.8,,,,Partly Cloudy,130,2013-02-15 00:00:00
2:20 AM,14.0,12.2,93,30.09,5.6,SE,4.6,-,N/A,,Scattered Clouds,140,2013-02-15 00:20:00
2:50 AM,15.8,14.0,93,30.09,6.2,East,4.6,-,N/A,,Scattered Clouds,90,2013-02-15 00:50:00
3:20 AM,19.4,17.6,93,30.09,6.2,ENE,8.1,-,N/A,,Scattered Clouds,60,2013-02-15 01:20:00
3:50 AM,19.4,17.6,93,30.06,6.2,ENE,16.1,-,N/A,,Scattered Clouds,70,2013-02-15 01:50:00
4:20 AM,17.6,17.6,100,30.06,6.2,East,16.1,-,N/A,,Scattered Clouds,90,2013-02-15 02:20:00
4:50 AM,14.0,10.4,86,30.06,6.2,SE,4.6,-,N/A,,Scattered Clouds,130,2013-02-15 02:50:00
5:20 AM,15.8,12.2,86,30.06,6.2,Variable,2.3,-,N/A,,Scattered Clouds,0,2013-02-15 03:20:00
5:50 AM,14.0,10.4,86,30.04,6.2,Variable,1.2,-,N/A,,Scattered Clouds,0,2013-02-15 03:50:00
6:20 AM,17.6,15.8,93,30.04,6.2,ENE,18.4,-,N/A,,Scattered Clouds,70,2013-02-15 04:20:00
6:50 AM,12.2,8.6,85,30.04,6.2,ESE,6.9,-,N/A,,Scattered Clouds,120,2013-02-15 04:50:00
7:20 AM,12.2,10.4,92,30.04,6.2,SE,4.6,-,N/A,,Scattered Clouds,130,2013-02-15 05:20:00
7:50 AM,15.8,12.2,86,30.04,6.2,ESE,4.6,-,N/A,,Scattered Clouds,110,2013-02-15 05:50:00
8:00 AM,16,15,94,,12,ESE,2.3,,,,Partly Cloudy,110,2013-02-15 06:00:00
8:20 AM,21.2,15.8,80,30.04,6.2,Variable,5.8,-,N/A,,Scattered Clouds,0,2013-02-15 06:20:00
8:50 AM,21.2,15.8,80,30.04,6.2,Variable,2.3,-,N/A,,Scattered Clouds,0,2013-02-15 06:50:00
9:20 AM,21.2,17.6,86,30.01,6.2,ESE,6.9,-,N/A,,Scattered Clouds,110,2013-02-15 07:20:00
9:50 AM,24.8,19.4,80,30.01,6.2,ESE,3.5,-,N/A,,Scattered Clouds,110,2013-02-15 07:50:00
10:20 AM,24.8,21.2,86,29.98,6.2,ENE,11.5,-,N/A,,Scattered Clouds,70,2013-02-15 08:20:00
10:50 AM,26.6,21.2,80,29.98,6.2,NE,8.1,-,N/A,,Scattered Clouds,50,2013-02-15 08:50:00
11:20 AM,28.4,23.0,80,29.95,6.2,SSE,4.6,-,N/A,,Scattered Clouds,150,2013-02-15 09:20:00
11:50 AM,30.2,23.0,75,29.95,5.6,NNE,3.5,-,N/A,,Mostly Cloudy,30,2013-02-15 09:50:00
12:20 PM,30.2,23.0,75,29.92,6.2,East,11.5,-,N/A,,Mostly Cloudy,80,2013-02-15 10:20:00
12:50 PM,30.2,23.0,75,29.92,6.2,ESE,9.2,-,N/A,,Mostly Cloudy,110,2013-02-15 10:50:00
1:20 PM,28.4,21.2,74,29.92,6.2,East,11.5,-,N/A,,Mostly Cloudy,90,2013-02-15 11:20:00
1:50 PM,30.2,23.0,75,29.92,6.2,ENE,10.4,-,N/A,,Mostly Cloudy,70,2013-02-15 11:50:00
2:00 PM,30,21,60,,12,ENE,10.4,,,,Partly Cloudy,70,2013-02-15 12:00:00
2:20 PM,26.6,26.6,100,29.92,0.6,ENE,9.2,-,N/A,Snow,Light Snow,60,2013-02-15 12:20:00
2:50 PM,26.6,24.8,93,29.92,2.8,NE,5.8,-,N/A,Snow,Light Snow,40,2013-02-15 12:50:00
3:20 PM,26.6,24.8,93,29.92,3.7,East,4.6,-,N/A,Snow,Light Snow,90,2013-02-15 13:20:00
3:50 PM,28.4,24.8,86,29.89,3.7,ENE,8.1,-,N/A,Snow,Light Snow,60,2013-02-15 13:50:00
4:20 PM,26.6,26.6,100,29.89,-9999.0,ENE,6.9,-,N/A,Snow,Light Snow,60,2013-02-15 14:20:00
4:50 PM,26.6,26.6,100,29.86,3.7,NE,8.1,-,N/A,Snow,Light Snow,50,2013-02-15 14:50:00
5:20 PM,26.6,26.6,100,29.86,3.7,East,5.8,-,N/A,Snow,Light Snow,80,2013-02-15 15:20:00
5:50 PM,28.4,26.6,93,29.86,3.7,Variable,2.3,-,N/A,Snow,Light Snow,0,2013-02-15 15:50:00
6:20 PM,26.6,24.8,93,29.86,2.5,NE,10.4,-,N/A,Snow,Light Snow,50,2013-02-15 16:20:00
6:50 PM,24.8,24.8,100,29.86,2.5,NE,11.5,-,N/A,Snow,Light Snow,50,2013-02-15 16:50:00
7:20 PM,24.8,24.8,100,29.83,2.5,ENE,12.7,-,N/A,Snow,Light Snow,60,2013-02-15 17:20:00
7:50 PM,26.6,24.8,93,29.83,2.5,East,13.8,-,N/A,Snow,Light Snow,80,2013-02-15 17:50:00
8:00 PM,26,25,93,,2,East,15.0,,,Snow,Light Snow,80,2013-02-15 18:00:00
8:20 PM,26.6,24.8,93,29.83,2.5,ENE,13.8,-,N/A,Snow,Light Snow,60,2013-02-15 18:20:00
8:50 PM,26.6,24.8,93,29.83,3.7,ENE,11.5,-,N/A,Snow,Light Snow,70,2013-02-15 18:50:00
9:20 PM,26.6,26.6,100,29.83,3.7,ENE,9.2,-,N/A,Snow,Light Snow,60,2013-02-15 19:20:00
9:50 PM,28.4,28.4,100,29.80,3.7,ENE,8.1,-,N/A,Snow,Light Snow,60,2013-02-15 19:50:00
10:20 PM,28.4,28.4,100,29.80,-9999.0,ENE,5.8,-,N/A,Snow,Light Snow,60,2013-02-15 20:20:00
10:50 PM,26.6,26.6,100,29.80,0.9,ENE,4.6,-,N/A,Snow,Light Snow,70,2013-02-15 20:50:00
11:20 PM,26.6,26.6,100,29.80,0.7,ENE,4.6,-,N/A,Snow,Light Snow,60,2013-02-15 21:20:00
11:50 PM,28.4,28.4,100,29.80,0.7,ENE,6.9,-,N/A,Snow,Light Snow,60,2013-02-15 21:50:00